sensor_id;sensor_type;location;lat;lon;timestamp;pressure;altitude;pressure_sealevel;temperature;humidity
48517;BME280;34310;51.904;4.256;2022-07-29T00:01:41;101886.06;;;22.46;54.79
48517;BME280;34310;51.904;4.256;2022-07-29T00:04:08;101883.38;;;22.45;54.90
48517;BME280;34310;51.904;4.256;2022-07-29T00:06:36;101882.53;;;22.46;54.99
48517;BME280;34310;51.904;4.256;2022-07-29T00:09:03;101874.69;;;22.47;54.65
48517;BME280;34310;51.904;4.256;2022-07-29T00:11:31;101877.22;;;22.44;55.04
48517;BME280;34310;51.904;4.256;2022-07-29T00:13:58;101882.47;;;22.44;54.93
48517;BME280;34310;51.904;4.256;2022-07-29T00:16:25;101877.28;;;22.46;54.99
48517;BME280;34310;51.904;4.256;2022-07-29T00:18:53;101870.22;;;22.45;54.73
48517;BME280;34310;51.904;4.256;2022-07-29T00:21:20;101872.78;;;22.43;55.34
48517;BME280;34310;51.904;4.256;2022-07-29T00:23:48;101875.41;;;22.43;54.91
48517;BME280;34310;51.904;4.256;2022-07-29T00:26:15;101872.72;;;22.42;55.15
48517;BME280;34310;51.904;4.256;2022-07-29T00:28:42;101878.84;;;22.41;55.38
48517;BME280;34310;51.904;4.256;2022-07-29T00:31:09;101876.19;;;22.41;55.02
48517;BME280;34310;51.904;4.256;2022-07-29T00:33:37;101871.78;;;22.40;55.28
48517;BME280;34310;51.904;4.256;2022-07-29T00:36:05;101865.63;;;22.39;55.42
48517;BME280;34310;51.904;4.256;2022-07-29T00:38:32;101861.19;;;22.38;55.43
48517;BME280;34310;51.904;4.256;2022-07-29T00:40:59;101866.47;;;22.38;55.43
48517;BME280;34310;51.904;4.256;2022-07-29T00:43:27;101864.72;;;22.39;55.40
48517;BME280;34310;51.904;4.256;2022-07-29T00:45:54;101863.00;;;22.39;55.54
48517;BME280;34310;51.904;4.256;2022-07-29T00:48:21;101856.78;;;22.37;55.32
48517;BME280;34310;51.904;4.256;2022-07-29T00:50:49;101860.28;;;22.38;55.24
48517;BME280;34310;51.904;4.256;2022-07-29T00:53:17;101862.94;;;22.38;55.34
48517;BME280;34310;51.904;4.256;2022-07-29T00:55:46;101854.97;;;22.36;55.72
48517;BME280;34310;51.904;4.256;2022-07-29T00:58:14;101857.56;;;22.35;55.70
48517;BME280;34310;51.904;4.256;2022-07-29T01:00:42;101852.28;;;22.35;55.39
48517;BME280;34310;51.904;4.256;2022-07-29T01:03:12;101849.66;;;22.35;55.62
48517;BME280;34310;51.904;4.256;2022-07-29T01:05:41;101853.13;;;22.34;55.95
48517;BME280;34310;51.904;4.256;2022-07-29T01:08:17;101849.59;;;22.33;55.63
48517;BME280;34310;51.904;4.256;2022-07-29T01:10:46;101847.81;;;22.32;55.88
48517;BME280;34310;51.904;4.256;2022-07-29T01:13:15;101846.06;;;22.33;55.89
48517;BME280;34310;51.904;4.256;2022-07-29T01:15:58;101839.84;;;22.31;56.10
48517;BME280;34310;51.904;4.256;2022-07-29T01:18:42;101842.50;;;22.31;56.07
48517;BME280;34310;51.904;4.256;2022-07-29T01:24:33;101844.16;;;22.29;56.24
48517;BME280;34310;51.904;4.256;2022-07-29T01:30:13;101847.63;;;22.28;56.14
48517;BME280;34310;51.904;4.256;2022-07-29T01:32:43;101844.91;;;22.26;56.37
48517;BME280;34310;51.904;4.256;2022-07-29T01:35:31;101846.66;;;22.25;56.43
48517;BME280;34310;51.904;4.256;2022-07-29T01:38:01;101844.84;;;22.24;56.31
48517;BME280;34310;51.904;4.256;2022-07-29T01:43:14;101839.53;;;22.23;56.35
48517;BME280;34310;51.904;4.256;2022-07-29T01:48:15;101831.63;;;22.23;56.32
48517;BME280;34310;51.904;4.256;2022-07-29T01:50:50;101827.16;;;22.20;56.82
48517;BME280;34310;51.904;4.256;2022-07-29T01:53:30;101823.63;;;22.20;56.55
48517;BME280;34310;51.904;4.256;2022-07-29T01:56:05;101815.75;;;22.20;56.62
48517;BME280;34310;51.904;4.256;2022-07-29T01:58:35;101814.84;;;22.19;56.99
48517;BME280;34310;51.904;4.256;2022-07-29T02:01:05;101815.69;;;22.18;56.58
48517;BME280;34310;51.904;4.256;2022-07-29T02:03:37;101817.41;;;22.18;56.78
48517;BME280;34310;51.904;4.256;2022-07-29T02:06:07;101820.94;;;22.18;56.78
48517;BME280;34310;51.904;4.256;2022-07-29T02:08:37;101819.16;;;22.17;56.63
48517;BME280;34310;51.904;4.256;2022-07-29T02:11:07;101813.88;;;22.17;56.82
48517;BME280;34310;51.904;4.256;2022-07-29T02:13:36;101815.63;;;22.17;56.98
48517;BME280;34310;51.904;4.256;2022-07-29T02:16:06;101816.47;;;22.16;56.75
48517;BME280;34310;51.904;4.256;2022-07-29T02:18:37;101813.78;;;22.14;57.07
48517;BME280;34310;51.904;4.256;2022-07-29T02:21:06;101815.56;;;22.15;56.84
48517;BME280;34310;51.904;4.256;2022-07-29T02:23:42;101808.44;;;22.13;56.83
48517;BME280;34310;51.904;4.256;2022-07-29T02:26:21;101811.09;;;22.13;56.95
48517;BME280;34310;51.904;4.256;2022-07-29T02:28:52;101809.28;;;22.12;57.26
48517;BME280;34310;51.904;4.256;2022-07-29T02:31:33;101811.88;;;22.10;57.05
48517;BME280;34310;51.904;4.256;2022-07-29T02:34:03;101816.28;;;22.11;57.08
48517;BME280;34310;51.904;4.256;2022-07-29T02:36:32;101812.75;;;22.11;57.05
48517;BME280;34310;51.904;4.256;2022-07-29T02:39:02;101804.88;;;22.11;57.30
48517;BME280;34310;51.904;4.256;2022-07-29T02:41:35;101812.69;;;22.09;57.41
48517;BME280;34310;51.904;4.256;2022-07-29T02:44:17;101807.38;;;22.08;57.24
48517;BME280;34310;51.904;4.256;2022-07-29T02:46:53;101801.22;;;22.07;57.39
48517;BME280;34310;51.904;4.256;2022-07-29T02:49:37;101801.22;;;22.07;57.27
48517;BME280;34310;51.904;4.256;2022-07-29T02:52:09;101800.28;;;22.05;57.36
48517;BME280;34310;51.904;4.256;2022-07-29T02:55:48;101792.38;;;22.05;57.36
48517;BME280;34310;51.904;4.256;2022-07-29T02:57:58;101789.69;;;22.04;57.59
48517;BME280;34310;51.904;4.256;2022-07-29T03:00:29;101798.47;;;22.04;57.41
48517;BME280;34310;51.904;4.256;2022-07-29T03:03:00;101798.47;;;22.04;57.53
48517;BME280;34310;51.904;4.256;2022-07-29T03:05:31;101794.94;;;22.04;57.56
48517;BME280;34310;51.904;4.256;2022-07-29T03:08:02;101797.50;;;22.02;57.36
48517;BME280;34310;51.904;4.256;2022-07-29T03:10:34;101791.34;;;22.02;57.38
48517;BME280;34310;51.904;4.256;2022-07-29T03:13:05;101793.06;;;22.01;57.55
48517;BME280;34310;51.904;4.256;2022-07-29T03:15:35;101800.94;;;22.01;57.74
48517;BME280;34310;51.904;4.256;2022-07-29T03:18:03;101789.53;;;22.01;57.60
48517;BME280;34310;51.904;4.256;2022-07-29T03:20:30;101787.75;;;22.00;57.52
48517;BME280;34310;51.904;4.256;2022-07-29T03:22:58;101792.94;;;21.98;57.43
48517;BME280;34310;51.904;4.256;2022-07-29T03:25:25;101788.50;;;21.97;57.71
48517;BME280;34310;51.904;4.256;2022-07-29T03:27:54;101787.69;;;21.98;57.58
48517;BME280;34310;51.904;4.256;2022-07-29T03:30:21;101794.69;;;21.98;57.62
48517;BME280;34310;51.904;4.256;2022-07-29T03:32:50;101792.06;;;21.98;57.89
48517;BME280;34310;51.904;4.256;2022-07-29T03:35:19;101800.84;;;21.98;57.79
48517;BME280;34310;51.904;4.256;2022-07-29T03:37:47;101794.69;;;21.98;57.84
48517;BME280;34310;51.904;4.256;2022-07-29T03:40:19;101796.31;;;21.95;57.74
48517;BME280;34310;51.904;4.256;2022-07-29T03:42:47;101785.81;;;21.95;57.51
48517;BME280;34310;51.904;4.256;2022-07-29T03:45:18;101792.78;;;21.95;57.72
48517;BME280;34310;51.904;4.256;2022-07-29T03:47:52;101786.63;;;21.94;57.91
48517;BME280;34310;51.904;4.256;2022-07-29T03:50:28;101781.31;;;21.93;57.78
48517;BME280;34310;51.904;4.256;2022-07-29T03:52:57;101787.47;;;21.93;57.85
48517;BME280;34310;51.904;4.256;2022-07-29T03:55:25;101781.31;;;21.93;57.85
48517;BME280;34310;51.904;4.256;2022-07-29T03:57:53;101790.94;;;21.92;57.94
48517;BME280;34310;51.904;4.256;2022-07-29T04:00:24;101795.31;;;21.92;57.93
48517;BME280;34310;51.904;4.256;2022-07-29T04:02:52;101782.16;;;21.92;58.20
48517;BME280;34310;51.904;4.256;2022-07-29T04:05:20;101795.25;;;21.90;58.15
48517;BME280;34310;51.904;4.256;2022-07-29T04:07:48;101792.63;;;21.90;57.85
48517;BME280;34310;51.904;4.256;2022-07-29T04:10:16;101796.19;;;21.92;58.21
48517;BME280;34310;51.904;4.256;2022-07-29T04:12:56;101791.72;;;21.90;58.17
48517;BME280;34310;51.904;4.256;2022-07-29T04:15:23;101795.19;;;21.89;58.03
48517;BME280;34310;51.904;4.256;2022-07-29T04:17:50;101800.44;;;21.89;58.31
48517;BME280;34310;51.904;4.256;2022-07-29T04:20:18;101801.34;;;21.89;58.12
48517;BME280;34310;51.904;4.256;2022-07-29T04:22:45;101800.44;;;21.89;58.40
48517;BME280;34310;51.904;4.256;2022-07-29T04:25:12;101804.81;;;21.88;58.40
48517;BME280;34310;51.904;4.256;2022-07-29T04:27:40;101795.13;;;21.87;57.97
48517;BME280;34310;51.904;4.256;2022-07-29T04:30:27;101796.88;;;21.87;58.42
48517;BME280;34310;51.904;4.256;2022-07-29T04:32:55;101792.44;;;21.86;58.36
48517;BME280;34310;51.904;4.256;2022-07-29T04:35:23;101795.97;;;21.86;58.51
48517;BME280;34310;51.904;4.256;2022-07-29T04:37:50;101795.91;;;21.85;58.42
48517;BME280;34310;51.904;4.256;2022-07-29T04:40:17;101798.53;;;21.85;58.25
48517;BME280;34310;51.904;4.256;2022-07-29T04:42:45;101796.75;;;21.84;58.45
48517;BME280;34310;51.904;4.256;2022-07-29T04:45:14;101803.78;;;21.85;58.62
48517;BME280;34310;51.904;4.256;2022-07-29T04:47:42;101804.63;;;21.84;58.50
48517;BME280;34310;51.904;4.256;2022-07-29T04:50:10;101804.63;;;21.84;58.57
48517;BME280;34310;51.904;4.256;2022-07-29T04:52:37;101809.88;;;21.84;58.82
48517;BME280;34310;51.904;4.256;2022-07-29T04:55:05;101808.16;;;21.84;58.70
48517;BME280;34310;51.904;4.256;2022-07-29T04:57:33;101805.53;;;21.84;58.88
48517;BME280;34310;51.904;4.256;2022-07-29T05:00:00;101804.63;;;21.84;58.78
48517;BME280;34310;51.904;4.256;2022-07-29T05:02:28;101809.00;;;21.83;59.03
48517;BME280;34310;51.904;4.256;2022-07-29T05:04:55;101812.50;;;21.84;58.70
48517;BME280;34310;51.904;4.256;2022-07-29T05:07:22;101815.16;;;21.84;58.64
48517;BME280;34310;51.904;4.256;2022-07-29T05:09:50;101809.06;;;21.85;58.57
48517;BME280;34310;51.904;4.256;2022-07-29T05:12:17;101811.69;;;21.85;58.93
48517;BME280;34310;51.904;4.256;2022-07-29T05:14:44;101808.16;;;21.84;58.68
48517;BME280;34310;51.904;4.256;2022-07-29T05:17:11;101808.22;;;21.86;58.87
48517;BME280;34310;51.904;4.256;2022-07-29T05:19:39;101813.47;;;21.86;58.58
48517;BME280;34310;51.904;4.256;2022-07-29T05:22:06;101805.59;;;21.86;58.63
48517;BME280;34310;51.904;4.256;2022-07-29T05:24:33;101810.91;;;21.87;58.51
48517;BME280;34310;51.904;4.256;2022-07-29T05:27:01;101811.75;;;21.86;58.50
48517;BME280;34310;51.904;4.256;2022-07-29T05:29:28;101813.53;;;21.87;58.65
48517;BME280;34310;51.904;4.256;2022-07-29T05:32:12;101805.66;;;21.87;58.40
48517;BME280;34310;51.904;4.256;2022-07-29T05:34:40;101812.63;;;21.87;58.80
48517;BME280;34310;51.904;4.256;2022-07-29T05:37:19;101805.59;;;21.86;58.81
48517;BME280;34310;51.904;4.256;2022-07-29T05:39:46;101817.00;;;21.86;58.66
48517;BME280;34310;51.904;4.256;2022-07-29T05:42:23;101823.16;;;21.87;58.73
48517;BME280;34310;51.904;4.256;2022-07-29T05:44:51;101824.00;;;21.86;58.86
48517;BME280;34310;51.904;4.256;2022-07-29T05:47:18;101827.50;;;21.86;58.78
48517;BME280;34310;51.904;4.256;2022-07-29T05:49:46;101820.47;;;21.85;58.73
48517;BME280;34310;51.904;4.256;2022-07-29T05:52:14;101825.72;;;21.85;58.48
48517;BME280;34310;51.904;4.256;2022-07-29T05:54:42;101831.88;;;21.86;58.64
48517;BME280;34310;51.904;4.256;2022-07-29T05:57:19;101838.88;;;21.85;58.88
48517;BME280;34310;51.904;4.256;2022-07-29T05:59:47;101829.25;;;21.86;58.57
48517;BME280;34310;51.904;4.256;2022-07-29T06:02:15;101827.50;;;21.86;58.41
48517;BME280;34310;51.904;4.256;2022-07-29T06:04:43;101836.28;;;21.87;58.57
48517;BME280;34310;51.904;4.256;2022-07-29T06:07:10;101836.28;;;21.87;58.68
48517;BME280;34310;51.904;4.256;2022-07-29T06:09:38;101830.25;;;21.89;58.37
48517;BME280;34310;51.904;4.256;2022-07-29T06:12:05;101825.91;;;21.90;58.24
48517;BME280;34310;51.904;4.256;2022-07-29T06:14:33;101832.19;;;21.93;58.46
48517;BME280;34310;51.904;4.256;2022-07-29T06:17:00;101826.09;;;21.94;58.22
48517;BME280;34310;51.904;4.256;2022-07-29T06:19:28;101828.78;;;21.96;58.49
48517;BME280;34310;51.904;4.256;2022-07-29T06:21:55;101831.56;;;21.99;58.22
48517;BME280;34310;51.904;4.256;2022-07-29T06:24:23;101833.34;;;22.00;58.06
48517;BME280;34310;51.904;4.256;2022-07-29T06:26:50;101839.56;;;22.02;58.30
48517;BME280;34310;51.904;4.256;2022-07-29T06:29:17;101839.66;;;22.04;58.06
48517;BME280;34310;51.904;4.256;2022-07-29T06:31:45;101838.88;;;22.06;58.13
48517;BME280;34310;51.904;4.256;2022-07-29T06:34:12;101839.84;;;22.08;57.88
48517;BME280;34310;51.904;4.256;2022-07-29T06:36:40;101839.91;;;22.10;57.78
48517;BME280;34310;51.904;4.256;2022-07-29T06:39:08;101844.31;;;22.11;58.02
48517;BME280;34310;51.904;4.256;2022-07-29T06:41:37;101836.50;;;22.12;57.79
48517;BME280;34310;51.904;4.256;2022-07-29T06:44:05;101840.06;;;22.14;57.85
48517;BME280;34310;51.904;4.256;2022-07-29T06:46:32;101832.25;;;22.16;57.55
48517;BME280;34310;51.904;4.256;2022-07-29T06:49:00;101836.66;;;22.17;57.61
48517;BME280;34310;51.904;4.256;2022-07-29T06:51:29;101841.97;;;22.18;57.57
48517;BME280;34310;51.904;4.256;2022-07-29T06:53:56;101840.31;;;22.20;57.65
48517;BME280;34310;51.904;4.256;2022-07-29T06:56:33;101842.09;;;22.21;57.62
48517;BME280;34310;51.904;4.256;2022-07-29T06:59:07;101837.78;;;22.23;57.31
48517;BME280;34310;51.904;4.256;2022-07-29T07:01:36;101845.63;;;22.22;57.24
48517;BME280;34310;51.904;4.256;2022-07-29T07:04:04;101840.44;;;22.23;57.22
48517;BME280;34310;51.904;4.256;2022-07-29T07:06:31;101841.38;;;22.25;57.35
48517;BME280;34310;51.904;4.256;2022-07-29T07:08:59;101844.91;;;22.26;57.38
48517;BME280;34310;51.904;4.256;2022-07-29T07:11:26;101849.38;;;22.27;57.53
48517;BME280;34310;51.904;4.256;2022-07-29T07:13:53;101847.63;;;22.28;57.19
48517;BME280;34310;51.904;4.256;2022-07-29T07:16:28;101852.88;;;22.28;57.14
48517;BME280;34310;51.904;4.256;2022-07-29T07:18:55;101855.59;;;22.29;57.22
48517;BME280;34310;51.904;4.256;2022-07-29T07:21:23;101859.06;;;22.28;57.34
48517;BME280;34310;51.904;4.256;2022-07-29T07:23:50;101861.75;;;22.30;57.14
48517;BME280;34310;51.904;4.256;2022-07-29T07:26:17;101855.59;;;22.29;57.47
48517;BME280;34310;51.904;4.256;2022-07-29T07:28:45;101858.28;;;22.31;57.34
48517;BME280;34310;51.904;4.256;2022-07-29T07:31:12;101858.28;;;22.31;57.17
48517;BME280;34310;51.904;4.256;2022-07-29T07:33:39;101857.44;;;22.32;57.31
48517;BME280;34310;51.904;4.256;2022-07-29T07:36:07;101853.06;;;22.32;57.04
48517;BME280;34310;51.904;4.256;2022-07-29T07:38:34;101856.59;;;22.33;57.44
48517;BME280;34310;51.904;4.256;2022-07-29T07:41:02;101853.97;;;22.33;57.22
48517;BME280;34310;51.904;4.256;2022-07-29T07:43:29;101853.13;;;22.34;57.30
48517;BME280;34310;51.904;4.256;2022-07-29T07:45:57;101847.03;;;22.35;57.09
48517;BME280;34310;51.904;4.256;2022-07-29T07:48:24;101855.81;;;22.35;56.90
48517;BME280;34310;51.904;4.256;2022-07-29T07:50:52;101854.97;;;22.36;57.26
48517;BME280;34310;51.904;4.256;2022-07-29T07:53:22;101861.13;;;22.37;57.21
48517;BME280;34310;51.904;4.256;2022-07-29T07:55:49;101852.41;;;22.38;56.82
48517;BME280;34310;51.904;4.256;2022-07-29T07:58:36;101857.66;;;22.38;56.82
48517;BME280;34310;51.904;4.256;2022-07-29T08:01:04;101855.03;;;22.38;56.97
48517;BME280;34310;51.904;4.256;2022-07-29T08:03:32;101853.31;;;22.38;57.06
48517;BME280;34310;51.904;4.256;2022-07-29T08:05:59;101857.72;;;22.39;56.95
48517;BME280;34310;51.904;4.256;2022-07-29T08:08:27;101860.41;;;22.41;56.69
48517;BME280;34310;51.904;4.256;2022-07-29T08:10:54;101856.88;;;22.40;56.90
48517;BME280;34310;51.904;4.256;2022-07-29T08:13:29;101855.16;;;22.41;56.86
48517;BME280;34310;51.904;4.256;2022-07-29T08:15:57;101856.94;;;22.42;56.89
48517;BME280;34310;51.904;4.256;2022-07-29T08:18:28;101858.75;;;22.43;56.80
48517;BME280;34310;51.904;4.256;2022-07-29T08:20:56;101861.38;;;22.43;56.85
48517;BME280;34310;51.904;4.256;2022-07-29T08:23:24;101859.63;;;22.43;57.02
48517;BME280;34310;51.904;4.256;2022-07-29T08:26:12;101858.84;;;22.46;56.76
48517;BME280;34310;51.904;4.256;2022-07-29T08:28:42;101862.31;;;22.45;56.92
48517;BME280;34310;51.904;4.256;2022-07-29T08:31:13;101862.31;;;22.45;56.70
48517;BME280;34310;51.904;4.256;2022-07-29T08:33:41;101858.84;;;22.46;56.89
48517;BME280;34310;51.904;4.256;2022-07-29T08:36:09;101865.00;;;22.46;56.88
48517;BME280;34310;51.904;4.256;2022-07-29T08:38:37;101854.53;;;22.48;57.16
48517;BME280;34310;51.904;4.256;2022-07-29T08:41:04;101865.13;;;22.49;56.94
48517;BME280;34310;51.904;4.256;2022-07-29T08:43:31;101864.22;;;22.49;57.03
48517;BME280;34310;51.904;4.256;2022-07-29T08:46:00;101860.75;;;22.50;57.20
48517;BME280;34310;51.904;4.256;2022-07-29T08:48:28;101857.28;;;22.51;57.06
48517;BME280;34310;51.904;4.256;2022-07-29T08:50:56;101863.44;;;22.51;57.10
48517;BME280;34310;51.904;4.256;2022-07-29T08:53:26;101866.13;;;22.53;57.16
48517;BME280;34310;51.904;4.256;2022-07-29T08:55:55;101869.72;;;22.55;57.00
48517;BME280;34310;51.904;4.256;2022-07-29T08:58:25;101869.72;;;22.55;57.22
48517;BME280;34310;51.904;4.256;2022-07-29T09:00:56;101874.19;;;22.56;57.28
48517;BME280;34310;51.904;4.256;2022-07-29T09:03:31;101866.34;;;22.58;57.04
48517;BME280;34310;51.904;4.256;2022-07-29T09:05:59;101858.44;;;22.58;57.25
48517;BME280;34310;51.904;4.256;2022-07-29T09:08:27;101863.72;;;22.58;57.21
48517;BME280;34310;51.904;4.256;2022-07-29T09:10:56;101858.50;;;22.59;56.96
48517;BME280;34310;51.904;4.256;2022-07-29T09:13:25;101864.66;;;22.60;57.17
48517;BME280;34310;51.904;4.256;2022-07-29T09:15:53;101858.56;;;22.61;57.04
48517;BME280;34310;51.904;4.256;2022-07-29T09:18:41;101857.66;;;22.60;57.08
48517;BME280;34310;51.904;4.256;2022-07-29T09:21:11;101860.34;;;22.62;57.27
48517;BME280;34310;51.904;4.256;2022-07-29T09:24:02;101852.47;;;22.62;57.17
48517;BME280;34310;51.904;4.256;2022-07-29T09:26:31;101857.78;;;22.63;57.19
48517;BME280;34310;51.904;4.256;2022-07-29T09:28:58;101854.25;;;22.63;56.94
48517;BME280;34310;51.904;4.256;2022-07-29T09:31:37;101851.63;;;22.63;57.27
48517;BME280;34310;51.904;4.256;2022-07-29T09:34:06;101857.84;;;22.65;56.99
48517;BME280;34310;51.904;4.256;2022-07-29T09:39:10;101853.47;;;22.65;57.03
48517;BME280;34310;51.904;4.256;2022-07-29T09:41:51;101863.16;;;22.66;57.02
48517;BME280;34310;51.904;4.256;2022-07-29T09:44:24;101859.69;;;22.67;56.99
48517;BME280;34310;51.904;4.256;2022-07-29T09:47:01;101857.94;;;22.68;56.99
48517;BME280;34310;51.904;4.256;2022-07-29T09:49:49;101858.84;;;22.68;57.08
48517;BME280;34310;51.904;4.256;2022-07-29T09:52:17;101855.38;;;22.69;56.80
48517;BME280;34310;51.904;4.256;2022-07-29T09:54:45;101858.91;;;22.70;56.96
48517;BME280;34310;51.904;4.256;2022-07-29T09:57:24;101857.16;;;22.70;56.95
48517;BME280;34310;51.904;4.256;2022-07-29T09:59:58;101855.41;;;22.71;56.91
48517;BME280;34310;51.904;4.256;2022-07-29T10:02:30;101858.94;;;22.71;56.76
48517;BME280;34310;51.904;4.256;2022-07-29T10:05:00;101853.75;;;22.73;56.97
48517;BME280;34310;51.904;4.256;2022-07-29T10:07:44;101856.38;;;22.73;56.72
48517;BME280;34310;51.904;4.256;2022-07-29T10:10:22;101851.09;;;22.73;56.65
48517;BME280;34310;51.904;4.256;2022-07-29T10:13:00;101853.78;;;22.74;56.85
48517;BME280;34310;51.904;4.256;2022-07-29T10:15:37;101850.38;;;22.77;56.51
48517;BME280;34310;51.904;4.256;2022-07-29T10:18:09;101849.53;;;22.78;56.55
48517;BME280;34310;51.904;4.256;2022-07-29T10:20:38;101854.81;;;22.78;56.42
48517;BME280;34310;51.904;4.256;2022-07-29T10:23:06;101850.59;;;22.81;56.37
48517;BME280;34310;51.904;4.256;2022-07-29T10:25:33;101848.91;;;22.83;56.39
48517;BME280;34310;51.904;4.256;2022-07-29T10:28:01;101843.63;;;22.83;56.13
48517;BME280;34310;51.904;4.256;2022-07-29T10:30:28;101850.78;;;22.86;56.16
48517;BME280;34310;51.904;4.256;2022-07-29T10:33:17;101843.78;;;22.86;56.22
48517;BME280;34310;51.904;4.256;2022-07-29T10:36:11;101848.25;;;22.89;55.95
48517;BME280;34310;51.904;4.256;2022-07-29T10:44:43;101843.16;;;22.94;56.04
48517;BME280;34310;51.904;4.256;2022-07-29T10:47:24;101840.56;;;22.95;56.00
48517;BME280;34310;51.904;4.256;2022-07-29T10:50:04;101840.69;;;22.98;55.73
48517;BME280;34310;51.904;4.256;2022-07-29T10:58:14;101837.41;;;23.05;55.56
48517;BME280;34310;51.904;4.256;2022-07-29T11:00:45;101837.41;;;23.05;55.44
48517;BME280;34310;51.904;4.256;2022-07-29T11:06:16;101835.00;;;23.11;55.32
48517;BME280;34310;51.904;4.256;2022-07-29T11:09:15;101837.69;;;23.13;55.14
48517;BME280;34310;51.904;4.256;2022-07-29T11:11:42;101838.66;;;23.15;54.95
48517;BME280;34310;51.904;4.256;2022-07-29T11:14:18;101836.19;;;23.20;54.95
48517;BME280;34310;51.904;4.256;2022-07-29T11:17:04;101837.97;;;23.21;54.84
48517;BME280;34310;51.904;4.256;2022-07-29T11:19:32;101824.91;;;23.24;54.71
48517;BME280;34310;51.904;4.256;2022-07-29T11:22:01;101835.50;;;23.25;54.84
48517;BME280;34310;51.904;4.256;2022-07-29T11:24:30;101835.56;;;23.27;54.52
48517;BME280;34310;51.904;4.256;2022-07-29T11:29:55;101834.88;;;23.32;54.68
48517;BME280;34310;51.904;4.256;2022-07-29T11:32:25;101830.59;;;23.36;54.40
48517;BME280;34310;51.904;4.256;2022-07-29T11:37:45;101832.47;;;23.40;54.08
48517;BME280;34310;51.904;4.256;2022-07-29T11:40:21;101835.16;;;23.41;54.19
48517;BME280;34310;51.904;4.256;2022-07-29T11:42:49;101834.47;;;23.45;54.17
48517;BME280;34310;51.904;4.256;2022-07-29T11:45:22;101832.78;;;23.47;54.12
48517;BME280;34310;51.904;4.256;2022-07-29T11:48:16;101831.06;;;23.49;53.97
48517;BME280;34310;51.904;4.256;2022-07-29T11:50:57;101835.56;;;23.52;53.96
48517;BME280;34310;51.904;4.256;2022-07-29T11:53:25;101834.72;;;23.53;54.18
48517;BME280;34310;51.904;4.256;2022-07-29T11:55:59;101831.31;;;23.56;53.91
48517;BME280;34310;51.904;4.256;2022-07-29T11:58:29;101833.16;;;23.58;53.72
48517;BME280;34310;51.904;4.256;2022-07-29T12:00:57;101840.22;;;23.59;53.71
48517;BME280;34310;51.904;4.256;2022-07-29T12:03:31;101839.38;;;23.60;54.05
48517;BME280;34310;51.904;4.256;2022-07-29T12:06:11;101848.31;;;23.65;53.72
48517;BME280;34310;51.904;4.256;2022-07-29T12:08:43;101840.47;;;23.67;53.80
48517;BME280;34310;51.904;4.256;2022-07-29T12:11:19;101838.72;;;23.67;53.83
48517;BME280;34310;51.904;4.256;2022-07-29T12:13:50;101845.03;;;23.71;53.70
48517;BME280;34310;51.904;4.256;2022-07-29T12:16:18;101845.06;;;23.72;53.69
48517;BME280;34310;51.904;4.256;2022-07-29T12:19:02;101854.81;;;23.75;53.34
48517;BME280;34310;51.904;4.256;2022-07-29T12:21:47;101861.09;;;23.78;53.29
48517;BME280;34310;51.904;4.256;2022-07-29T12:24:25;101858.56;;;23.82;53.32
48517;BME280;34310;51.904;4.256;2022-07-29T12:26:55;101855.97;;;23.83;53.51
48517;BME280;34310;51.904;4.256;2022-07-29T12:29:23;101855.13;;;23.84;53.42
48517;BME280;34310;51.904;4.256;2022-07-29T12:32:01;101854.38;;;23.88;53.26
48517;BME280;34310;51.904;4.256;2022-07-29T12:34:30;101856.22;;;23.91;53.32
48517;BME280;34310;51.904;4.256;2022-07-29T12:36:58;101856.25;;;23.92;53.17
48517;BME280;34310;51.904;4.256;2022-07-29T12:39:26;101864.25;;;23.95;53.14
48517;BME280;34310;51.904;4.256;2022-07-29T12:41:55;101859.94;;;23.97;53.11
48517;BME280;34310;51.904;4.256;2022-07-29T12:44:44;101867.97;;;24.00;52.83
48517;BME280;34310;51.904;4.256;2022-07-29T12:47:12;101863.66;;;24.02;52.84
48517;BME280;34310;51.904;4.256;2022-07-29T12:49:39;101858.41;;;24.04;52.99
48517;BME280;34310;51.904;4.256;2022-07-29T12:52:26;101867.22;;;24.04;52.80
48517;BME280;34310;51.904;4.256;2022-07-29T12:54:54;101859.41;;;24.07;52.99
48517;BME280;34310;51.904;4.256;2022-07-29T12:57:22;101864.78;;;24.10;52.95
48517;BME280;34310;51.904;4.256;2022-07-29T13:02:32;101863.97;;;24.13;52.72
48517;BME280;34310;51.904;4.256;2022-07-29T13:05:00;101859.69;;;24.17;52.48
48517;BME280;34310;51.904;4.256;2022-07-29T13:07:30;101860.66;;;24.20;52.64
48517;BME280;34310;51.904;4.256;2022-07-29T13:10:20;101862.47;;;24.21;52.61
48517;BME280;34310;51.904;4.256;2022-07-29T13:13:11;101864.31;;;24.24;52.24
48517;BME280;34310;51.904;4.256;2022-07-29T13:15:41;101873.16;;;24.26;52.53
48517;BME280;34310;51.904;4.256;2022-07-29T13:18:31;101867.13;;;24.28;52.54
48517;BME280;34310;51.904;4.256;2022-07-29T13:21:11;101874.25;;;24.31;52.26
48517;BME280;34310;51.904;4.256;2022-07-29T13:23:39;101869.94;;;24.33;52.34
48517;BME280;34310;51.904;4.256;2022-07-29T13:26:08;101877.03;;;24.35;52.33
48517;BME280;34310;51.904;4.256;2022-07-29T13:28:35;101871.75;;;24.35;52.31
48517;BME280;34310;51.904;4.256;2022-07-29T13:31:03;101876.22;;;24.38;52.06
48517;BME280;34310;51.904;4.256;2022-07-29T13:33:32;101878.13;;;24.42;52.26
48517;BME280;34310;51.904;4.256;2022-07-29T13:35:59;101874.69;;;24.45;52.16
48517;BME280;34310;51.904;4.256;2022-07-29T13:38:26;101875.56;;;24.45;51.90
48517;BME280;34310;51.904;4.256;2022-07-29T13:40:57;101877.41;;;24.48;51.88
48517;BME280;34310;51.904;4.256;2022-07-29T13:43:25;101880.09;;;24.49;51.83
48517;BME280;34310;51.904;4.256;2022-07-29T13:45:52;101876.63;;;24.52;51.99
48517;BME280;34310;51.904;4.256;2022-07-29T13:48:20;101870.50;;;24.53;52.06